< < Back
Terminal Aerodrome Forecast


Current Version              Previous Versions:   1  2  3  4  5  6  7  8  9  

Terminal Aerodrome Forecast

739
FTUS42 KGSP 202311 AAC
TAFCLT
TAF AMD
KCLT 202311Z 2023/2118 19010KT P6SM SCT030 BKN060
     FM210000 23007KT P6SM SCT050 BKN250
     FM210800 29005KT P6SM SCT250=



Latest METAR

054
SAUS70 KWBC 210300 RRA
MTRCLT
METAR KCLT 210252Z 22008KT 10SM CLR 17/15 A2971 RMK AO2 SLP056 T01670150
53018


USA.gov is the U.S. government's official web portal to all federal, state and local government web resources and services.